Athol, South Dakota
Current Conditions -  °F | °C
As of 2:53 PM on Thursday 20 Nov 2014 (Local Time) from KABR Reporting Station
Clear Clear  
Wind Chill: 22°   Ceiling: Unl
Heat Index: 22°   Visibility: 10mi
Dew Point:   Wind: 3mph
Humidity: 58%   Direction: 230°SW
Pressure: 30.14"   Gusts: NA
Location:  45.027°N, 98.472°W
Report Text: KABR 202053Z AUTO 23003KT 10SM CLR M06/M13 A3014 RMK AO2 SLP233 T10561128 58010
Loading
Personal Weather Stations






























Interactive Weather Map New forecast layout! Learn more

10-Day Weather Forecast

Advertisements
Track Severe Weather on mobile